createdAt,value
2023-01-31T00:01:31.988Z,0.75
2023-01-31T00:04:00.776Z,0.75
2023-01-31T00:06:30.000Z,0.40
2023-01-31T00:08:57.718Z,0.55
2023-01-31T00:11:26.218Z,0.47
2023-01-31T00:13:53.914Z,0.40
2023-01-31T00:16:21.970Z,0.40
2023-01-31T00:18:49.037Z,0.87
2023-01-31T00:21:18.297Z,0.40
2023-01-31T00:23:46.784Z,1.08
2023-01-31T00:26:19.045Z,0.80
2023-01-31T00:28:47.277Z,0.63
2023-01-31T00:31:15.184Z,0.60
2023-01-31T00:33:44.518Z,0.70
2023-01-31T00:36:14.202Z,0.50
2023-01-31T00:38:42.169Z,0.70
2023-01-31T00:41:09.368Z,0.98
2023-01-31T00:43:36.747Z,0.60
2023-01-31T00:46:03.732Z,0.68
2023-01-31T00:48:30.995Z,0.50
2023-01-31T00:50:57.438Z,0.63
2023-01-31T00:53:25.568Z,1.55
2023-01-31T00:55:53.931Z,0.50
2023-01-31T00:58:20.912Z,0.73
2023-01-31T01:00:48.023Z,0.40
2023-01-31T01:03:15.056Z,0.60
2023-01-31T01:05:41.919Z,0.32
2023-01-31T01:08:08.452Z,0.70
2023-01-31T01:10:35.115Z,0.80
2023-01-31T01:13:02.645Z,0.57
2023-01-31T01:15:29.151Z,0.70
2023-01-31T01:17:56.599Z,0.93
2023-01-31T01:20:23.751Z,0.70
2023-01-31T01:22:50.265Z,0.47
2023-01-31T01:25:16.822Z,0.93
2023-01-31T01:27:43.448Z,0.90
2023-01-31T01:30:10.855Z,0.73
2023-01-31T01:32:37.338Z,0.83
2023-01-31T01:35:04.552Z,0.30
2023-01-31T01:37:31.376Z,0.57
2023-01-31T01:39:57.882Z,0.40
2023-01-31T01:42:26.185Z,0.50
2023-01-31T01:44:55.377Z,0.67
2023-01-31T01:47:46.900Z,0.73
2023-01-31T01:50:29.180Z,0.90
2023-01-31T01:53:03.812Z,0.82
2023-01-31T01:55:37.380Z,0.85
2023-01-31T01:58:15.865Z,0.60
2023-01-31T02:00:45.329Z,0.90
2023-01-31T02:03:12.280Z,0.40
2023-01-31T02:05:45.571Z,0.80
2023-01-31T02:08:14.561Z,0.50
2023-01-31T02:10:47.693Z,0.57
2023-01-31T02:13:15.222Z,0.70
2023-01-31T02:15:41.863Z,0.50
2023-01-31T02:18:09.143Z,0.77
2023-01-31T02:20:54.319Z,0.70
2023-01-31T02:23:42.119Z,0.73
2023-01-31T02:26:48.749Z,1.05
2023-01-31T02:29:50.473Z,0.77
2023-01-31T02:32:49.312Z,0.65
2023-01-31T02:35:42.191Z,1.08
2023-01-31T02:38:53.773Z,0.50
2023-01-31T02:41:38.300Z,1.02
2023-01-31T02:44:49.495Z,0.52
2023-01-31T02:47:43.598Z,1.08
2023-01-31T02:50:31.051Z,0.80
2023-01-31T02:53:14.941Z,0.80
2023-01-31T02:56:10.750Z,0.98
2023-01-31T02:58:40.083Z,0.80
2023-01-31T03:01:07.521Z,0.85
2023-01-31T03:03:36.675Z,0.80
2023-01-31T03:06:23.379Z,0.93
2023-01-31T03:08:58.012Z,0.88
2023-01-31T03:11:34.068Z,0.70
2023-01-31T03:14:05.919Z,0.77
2023-01-31T03:17:00.723Z,1.50
2023-01-31T03:19:48.151Z,0.87
2023-01-31T03:22:20.665Z,0.70
2023-01-31T03:24:50.429Z,1.30
2023-01-31T03:27:17.685Z,1.30
2023-01-31T03:29:44.999Z,1.33
2023-01-31T03:32:23.638Z,1.27
2023-01-31T03:34:52.242Z,1.92
2023-01-31T03:37:33.144Z,0.90
2023-01-31T03:40:09.270Z,1.52
2023-01-31T03:42:38.728Z,1.65
2023-01-31T03:45:12.634Z,1.30
2023-01-31T03:47:43.020Z,1.35
2023-01-31T03:50:15.669Z,1.40
2023-01-31T03:52:48.932Z,1.85
2023-01-31T03:55:24.542Z,1.70
2023-01-31T03:57:54.398Z,1.63
2023-01-31T04:00:22.887Z,1.55
2023-01-31T04:02:56.061Z,2.00
2023-01-31T04:05:30.503Z,2.13
2023-01-31T04:07:58.820Z,2.05
2023-01-31T04:10:26.405Z,1.53
2023-01-31T04:12:53.598Z,2.03
2023-01-31T04:15:20.775Z,1.67
2023-01-31T04:17:47.557Z,1.83
2023-01-31T04:20:14.252Z,2.15
2023-01-31T04:22:40.891Z,1.73
2023-01-31T04:25:07.988Z,2.03
2023-01-31T04:27:34.470Z,2.17
2023-01-31T04:30:00.991Z,2.20
2023-01-31T04:32:28.129Z,2.17
2023-01-31T04:34:54.689Z,2.27
2023-01-31T04:37:21.290Z,2.67
2023-01-31T04:39:47.948Z,2.03
2023-01-31T04:42:14.414Z,2.47
2023-01-31T04:44:40.945Z,2.38
2023-01-31T04:47:07.808Z,2.40
2023-01-31T04:49:34.386Z,2.72
2023-01-31T04:52:00.874Z,2.40
2023-01-31T04:54:27.365Z,2.15
2023-01-31T04:56:53.980Z,1.90
2023-01-31T04:59:20.495Z,2.30
2023-01-31T05:01:46.953Z,2.53
2023-01-31T05:04:13.437Z,2.88
2023-01-31T05:06:39.996Z,2.33
2023-01-31T05:09:06.739Z,2.42
2023-01-31T05:11:33.420Z,2.50
2023-01-31T05:14:00.402Z,2.75
2023-01-31T05:16:26.928Z,2.25
2023-01-31T05:18:53.518Z,2.13
2023-01-31T05:21:20.090Z,2.58
2023-01-31T05:23:46.578Z,2.20
2023-01-31T05:26:13.139Z,1.98
2023-01-31T05:28:40.020Z,2.47
2023-01-31T05:31:08.231Z,2.47
2023-01-31T05:33:35.993Z,2.20
2023-01-31T05:36:03.679Z,2.17
2023-01-31T05:38:31.249Z,2.22
2023-01-31T05:40:57.787Z,2.40
2023-01-31T05:43:24.259Z,1.90
2023-01-31T05:45:50.839Z,2.47
2023-01-31T05:48:17.372Z,2.17
2023-01-31T05:50:44.017Z,2.30
2023-01-31T05:53:11.069Z,2.20
2023-01-31T05:55:37.773Z,2.40
2023-01-31T05:58:04.436Z,3.17
2023-01-31T06:00:31.088Z,2.57
2023-01-31T06:02:59.687Z,2.35
2023-01-31T06:05:27.191Z,3.15
2023-01-31T06:07:53.772Z,2.20
2023-01-31T06:10:21.192Z,2.00
2023-01-31T06:12:48.242Z,2.10
2023-01-31T06:15:14.812Z,2.20
2023-01-31T06:17:41.251Z,3.20
2023-01-31T06:20:08.474Z,2.17
2023-01-31T06:22:34.955Z,2.45
2023-01-31T06:25:01.511Z,2.53
2023-01-31T06:27:28.134Z,2.38
2023-01-31T06:29:54.631Z,2.38
2023-01-31T06:32:21.165Z,1.67
2023-01-31T06:34:47.698Z,2.00
2023-01-31T06:37:14.235Z,2.10
2023-01-31T06:39:40.664Z,2.00
2023-01-31T06:42:07.399Z,2.15
2023-01-31T06:44:33.931Z,1.77
2023-01-31T06:47:01.305Z,1.58
2023-01-31T06:49:27.823Z,1.83
2023-01-31T06:51:54.450Z,1.70
2023-01-31T06:54:20.940Z,2.45
2023-01-31T06:56:47.596Z,2.03
2023-01-31T06:59:14.202Z,1.58
2023-01-31T07:01:40.760Z,1.60
2023-01-31T07:04:07.301Z,1.67
2023-01-31T07:06:33.850Z,2.08
2023-01-31T07:09:00.364Z,2.40
2023-01-31T07:11:26.947Z,1.70
2023-01-31T07:13:53.426Z,1.37
2023-01-31T07:16:22.653Z,1.75
2023-01-31T07:18:52.685Z,1.63
2023-01-31T07:21:19.353Z,1.83
2023-01-31T07:23:46.435Z,1.92
2023-01-31T07:26:13.634Z,2.00
2023-01-31T07:28:40.281Z,1.65
2023-01-31T07:31:10.925Z,2.53
2023-01-31T07:33:38.754Z,1.70
2023-01-31T07:36:07.231Z,2.22
2023-01-31T07:38:35.545Z,1.70
2023-01-31T07:41:03.825Z,2.00
2023-01-31T07:43:32.073Z,1.42
2023-01-31T07:45:58.672Z,1.80
2023-01-31T07:48:25.437Z,2.58
2023-01-31T07:50:53.800Z,1.80
2023-01-31T07:53:20.535Z,1.95
2023-01-31T07:55:47.680Z,2.13
2023-01-31T07:58:15.473Z,1.73
2023-01-31T08:01:03.313Z,1.88
2023-01-31T08:03:34.089Z,2.03
2023-01-31T08:06:08.592Z,1.50
2023-01-31T08:08:36.544Z,1.55
2023-01-31T08:11:05.089Z,2.08
2023-01-31T08:13:38.609Z,1.88
2023-01-31T08:16:06.907Z,1.60
2023-01-31T08:18:34.042Z,2.08
2023-01-31T08:21:00.981Z,2.45
2023-01-31T08:23:28.580Z,1.85
2023-01-31T08:26:01.967Z,2.45
2023-01-31T08:28:29.158Z,1.83
2023-01-31T08:31:07.797Z,1.73
2023-01-31T08:33:36.998Z,2.00
2023-01-31T08:36:15.308Z,1.80
2023-01-31T08:38:42.209Z,1.50
2023-01-31T08:41:08.892Z,1.70
2023-01-31T08:43:53.760Z,1.42
2023-01-31T08:46:22.288Z,1.65
2023-01-31T08:48:48.828Z,1.90
2023-01-31T08:51:15.387Z,2.38
2023-01-31T08:53:46.409Z,2.37
2023-01-31T08:56:14.456Z,1.63
2023-01-31T08:58:42.906Z,1.73
2023-01-31T09:01:12.841Z,1.58
2023-01-31T09:03:40.127Z,1.85
2023-01-31T09:06:09.190Z,1.20
2023-01-31T09:08:35.695Z,1.67
2023-01-31T09:11:02.674Z,1.27
2023-01-31T09:13:30.334Z,1.65
2023-01-31T09:16:01.833Z,1.58
2023-01-31T09:18:28.857Z,1.53
2023-01-31T09:20:55.928Z,2.17
2023-01-31T09:23:22.942Z,1.50
2023-01-31T09:25:55.671Z,1.83
2023-01-31T09:28:23.585Z,1.88
2023-01-31T09:30:53.067Z,1.83
2023-01-31T09:33:20.615Z,1.50
2023-01-31T09:36:03.115Z,1.38
2023-01-31T09:38:29.788Z,1.88
2023-01-31T09:40:59.436Z,2.25
2023-01-31T09:43:32.347Z,2.00
2023-01-31T09:46:01.587Z,2.35
2023-01-31T09:48:34.911Z,2.50
2023-01-31T09:51:04.175Z,2.17
2023-01-31T09:53:37.190Z,2.30
2023-01-31T09:56:09.830Z,2.50
2023-01-31T09:58:50.037Z,2.40
2023-01-31T10:01:44.752Z,2.22
2023-01-31T10:04:37.554Z,2.92
2023-01-31T10:07:25.323Z,2.22
2023-01-31T10:10:13.910Z,2.40
2023-01-31T10:12:48.251Z,2.55
2023-01-31T10:15:30.533Z,2.63
2023-01-31T10:18:03.628Z,2.00
2023-01-31T10:20:59.877Z,2.58
2023-01-31T10:23:34.303Z,2.20
2023-01-31T10:26:04.498Z,2.05
2023-01-31T10:28:38.896Z,2.50
2023-01-31T10:31:32.063Z,2.58
2023-01-31T10:34:13.603Z,2.72
2023-01-31T10:37:02.278Z,2.40
2023-01-31T10:39:41.740Z,2.30
2023-01-31T10:42:31.766Z,2.50
2023-01-31T10:45:19.977Z,2.30
2023-01-31T10:48:01.164Z,1.92
2023-01-31T10:50:42.972Z,2.07
2023-01-31T10:53:32.489Z,2.00
2023-01-31T10:56:35.798Z,2.03
2023-01-31T10:59:22.390Z,1.90
2023-01-31T11:01:49.036Z,2.05
2023-01-31T11:04:54.052Z,2.37
2023-01-31T11:07:21.532Z,2.55
2023-01-31T11:09:54.342Z,2.20
2023-01-31T11:12:22.186Z,1.85
2023-01-31T11:15:15.151Z,1.63
2023-01-31T11:17:43.622Z,2.10
2023-01-31T11:20:23.039Z,1.83
2023-01-31T11:22:50.327Z,2.15
2023-01-31T11:25:22.877Z,1.88
2023-01-31T11:27:52.579Z,1.70
2023-01-31T11:30:35.797Z,1.67
2023-01-31T11:33:02.733Z,2.28
2023-01-31T11:35:31.580Z,1.90
2023-01-31T11:38:10.219Z,1.83
2023-01-31T11:40:38.626Z,1.63
2023-01-31T11:43:21.999Z,1.63
2023-01-31T11:45:58.212Z,1.42
2023-01-31T11:48:42.441Z,1.10
2023-01-31T11:51:10.773Z,1.50
2023-01-31T11:53:39.483Z,1.80
2023-01-31T11:56:16.110Z,1.27
2023-01-31T11:58:46.059Z,1.67
2023-01-31T12:01:12.531Z,1.75
2023-01-31T12:03:51.798Z,1.23
2023-01-31T12:06:34.845Z,1.00
2023-01-31T12:09:04.278Z,1.93
2023-01-31T12:11:35.791Z,1.15
2023-01-31T12:14:16.911Z,1.25
2023-01-31T12:16:45.636Z,1.15
2023-01-31T12:19:12.118Z,1.55
2023-01-31T12:22:18.068Z,1.40
2023-01-31T12:25:28.268Z,1.60
2023-01-31T12:28:36.273Z,1.30
2023-01-31T12:31:12.210Z,1.30
2023-01-31T12:33:41.736Z,0.85
2023-01-31T12:36:20.434Z,0.87
2023-01-31T12:38:59.110Z,0.80
2023-01-31T12:41:31.614Z,1.50
2023-01-31T12:44:19.745Z,1.30
2023-01-31T12:47:11.496Z,1.17
2023-01-31T12:49:56.806Z,1.10
2023-01-31T12:52:29.081Z,0.73
2023-01-31T12:55:13.870Z,0.85
2023-01-31T12:57:56.076Z,0.85
2023-01-31T13:00:42.461Z,0.80
2023-01-31T13:03:51.087Z,0.80
2023-01-31T13:06:34.481Z,1.15
2023-01-31T13:09:08.962Z,0.95
2023-01-31T13:11:49.516Z,1.02
2023-01-31T13:14:21.550Z,0.50
2023-01-31T13:16:53.307Z,1.00
2023-01-31T13:19:26.410Z,1.00
2023-01-31T13:21:59.376Z,0.95
2023-01-31T13:24:31.691Z,0.95
2023-01-31T13:27:03.446Z,0.57
2023-01-31T13:29:40.958Z,1.10
2023-01-31T13:32:20.732Z,0.70
2023-01-31T13:34:52.628Z,0.63
2023-01-31T13:37:21.381Z,0.65
2023-01-31T13:39:58.202Z,1.23
2023-01-31T13:42:24.787Z,1.43
2023-01-31T13:44:52.695Z,0.52
2023-01-31T13:47:51.274Z,0.80
2023-01-31T13:50:39.890Z,0.73
2023-01-31T13:53:15.987Z,1.40
2023-01-31T13:55:45.807Z,0.70
2023-01-31T13:58:22.507Z,0.85
2023-01-31T14:00:59.275Z,0.75
2023-01-31T14:03:26.296Z,0.82
2023-01-31T14:05:54.785Z,0.77
2023-01-31T14:08:27.437Z,0.90
2023-01-31T14:10:56.112Z,0.70
2023-01-31T14:13:31.489Z,0.80
2023-01-31T14:15:58.945Z,0.77
2023-01-31T14:18:45.530Z,0.73
2023-01-31T14:21:32.375Z,0.40
2023-01-31T14:24:01.463Z,0.60
2023-01-31T14:26:43.295Z,0.63
2023-01-31T14:29:16.642Z,0.77
2023-01-31T14:31:44.888Z,0.70
2023-01-31T14:34:21.242Z,0.80
2023-01-31T14:37:13.855Z,0.70
2023-01-31T14:39:49.243Z,0.80
2023-01-31T14:42:32.582Z,0.93
2023-01-31T14:45:30.081Z,0.60
2023-01-31T14:48:38.900Z,0.60
2023-01-31T14:51:23.236Z,0.55
2023-01-31T14:54:08.235Z,0.40
2023-01-31T14:57:12.556Z,0.90
2023-01-31T14:59:58.352Z,0.88
2023-01-31T15:02:31.295Z,0.70
2023-01-31T15:04:59.203Z,0.60
2023-01-31T15:07:26.444Z,1.50
2023-01-31T15:09:55.391Z,0.52
2023-01-31T15:12:55.174Z,0.60
2023-01-31T15:15:24.872Z,1.03
2023-01-31T15:17:54.317Z,0.93
2023-01-31T15:20:43.293Z,0.50
2023-01-31T15:23:28.909Z,0.85
2023-01-31T15:25:58.564Z,1.17
2023-01-31T15:28:33.693Z,0.63
2023-01-31T15:31:07.026Z,0.77
2023-01-31T15:33:43.197Z,0.90
2023-01-31T15:36:18.451Z,0.30
2023-01-31T15:38:52.008Z,0.60
2023-01-31T15:41:25.324Z,0.50
2023-01-31T15:43:57.022Z,1.20
2023-01-31T15:46:32.246Z,0.90
2023-01-31T15:49:00.212Z,0.77
2023-01-31T15:51:28.330Z,0.65
2023-01-31T15:54:06.576Z,0.70
2023-01-31T15:56:37.420Z,1.08
2023-01-31T15:59:12.310Z,0.52
2023-01-31T16:01:39.083Z,0.80
2023-01-31T16:04:06.401Z,0.77
2023-01-31T16:06:36.359Z,0.70
2023-01-31T16:09:05.380Z,1.13
2023-01-31T16:11:34.236Z,0.70
2023-01-31T16:14:05.933Z,0.60
2023-01-31T16:16:35.358Z,0.50
2023-01-31T16:19:02.899Z,0.80
2023-01-31T16:21:39.947Z,0.75
2023-01-31T16:24:14.829Z,0.75
2023-01-31T16:27:09.419Z,0.50
2023-01-31T16:29:42.792Z,0.63
2023-01-31T16:32:18.755Z,1.23
2023-01-31T16:34:55.837Z,0.73
2023-01-31T16:37:38.781Z,0.98
2023-01-31T16:40:28.836Z,0.75
2023-01-31T16:43:09.343Z,0.80
2023-01-31T16:45:35.845Z,1.03
2023-01-31T16:48:35.853Z,0.75
2023-01-31T16:51:28.280Z,0.70
2023-01-31T16:54:16.678Z,0.90
2023-01-31T16:57:01.538Z,0.93
2023-01-31T16:59:33.948Z,0.63
2023-01-31T17:02:19.039Z,0.90
2023-01-31T17:04:48.954Z,1.08
2023-01-31T17:07:32.748Z,0.90
2023-01-31T17:10:06.095Z,0.73
2023-01-31T17:12:36.380Z,0.60
2023-01-31T17:15:03.909Z,0.28
2023-01-31T17:17:34.613Z,0.40
2023-01-31T17:20:01.239Z,0.90
2023-01-31T17:22:27.808Z,0.80
2023-01-31T17:24:54.410Z,1.00
2023-01-31T17:27:21.643Z,1.00
2023-01-31T17:29:49.213Z,1.00
2023-01-31T17:32:20.552Z,0.73
2023-01-31T17:34:48.740Z,1.08
2023-01-31T17:37:20.763Z,1.00
2023-01-31T17:39:50.512Z,1.27
2023-01-31T17:42:20.398Z,1.23
2023-01-31T17:44:47.396Z,0.68
2023-01-31T17:47:14.135Z,1.00
2023-01-31T17:49:40.618Z,0.87
2023-01-31T17:52:07.194Z,1.05
2023-01-31T17:54:33.823Z,1.45
2023-01-31T17:57:00.352Z,1.13
2023-01-31T17:59:27.702Z,0.55
2023-01-31T18:01:54.534Z,0.87
2023-01-31T18:04:21.043Z,1.35
2023-01-31T18:06:47.527Z,1.55
2023-01-31T18:09:16.153Z,0.73
2023-01-31T18:11:43.904Z,1.13
2023-01-31T18:14:11.853Z,1.23
2023-01-31T18:16:38.834Z,1.48
2023-01-31T18:19:05.476Z,1.23
2023-01-31T18:21:32.310Z,0.70
2023-01-31T18:24:01.645Z,1.08
2023-01-31T18:26:28.566Z,1.37
2023-01-31T18:28:57.305Z,1.02
2023-01-31T18:31:24.100Z,0.90
2023-01-31T18:33:50.668Z,0.88
2023-01-31T18:36:20.245Z,1.10
2023-01-31T18:38:48.022Z,1.13
2023-01-31T18:41:16.725Z,0.50
2023-01-31T18:43:43.918Z,0.73
2023-01-31T18:46:11.458Z,0.60
2023-01-31T18:48:39.215Z,0.63
2023-01-31T18:51:08.626Z,0.87
2023-01-31T18:53:36.367Z,0.88
2023-01-31T18:56:05.853Z,0.90
2023-01-31T18:58:38.024Z,1.30
2023-01-31T19:01:13.840Z,0.93
2023-01-31T19:03:41.664Z,1.30
2023-01-31T19:06:14.019Z,0.65
2023-01-31T19:08:40.749Z,1.20
2023-01-31T19:11:09.898Z,1.30
2023-01-31T19:13:37.249Z,0.80
2023-01-31T19:16:07.034Z,0.70
2023-01-31T19:18:34.332Z,1.00
2023-01-31T19:21:01.206Z,0.80
2023-01-31T19:23:28.300Z,2.30
2023-01-31T19:25:54.941Z,1.13
2023-01-31T19:28:23.236Z,1.07
2023-01-31T19:30:51.834Z,0.82
2023-01-31T19:33:19.724Z,0.93
2023-01-31T19:35:46.406Z,1.55
2023-01-31T19:38:13.980Z,1.08
2023-01-31T19:40:42.165Z,1.00
2023-01-31T19:43:08.782Z,0.82
2023-01-31T19:45:35.509Z,0.95
2023-01-31T19:48:02.045Z,1.02
2023-01-31T19:50:29.337Z,1.05
2023-01-31T19:52:56.125Z,0.90
2023-01-31T19:55:23.037Z,0.98
2023-01-31T19:57:49.921Z,1.20
2023-01-31T20:00:16.672Z,0.77
2023-01-31T20:02:43.269Z,1.05
2023-01-31T20:05:10.779Z,0.80
2023-01-31T20:07:37.714Z,1.25
2023-01-31T20:10:04.534Z,1.08
2023-01-31T20:12:30.985Z,0.63
2023-01-31T20:14:57.567Z,1.08
2023-01-31T20:17:25.174Z,1.60
2023-01-31T20:19:51.898Z,0.98
2023-01-31T20:22:21.895Z,1.02
2023-01-31T20:24:48.989Z,0.68
2023-01-31T20:27:15.919Z,1.17
2023-01-31T20:29:42.380Z,0.90
2023-01-31T20:32:10.271Z,0.82
2023-01-31T20:34:36.960Z,0.90
2023-01-31T20:37:03.574Z,0.85
2023-01-31T20:39:30.092Z,0.82
2023-01-31T20:41:57.125Z,1.07
2023-01-31T20:44:23.668Z,0.68
2023-01-31T20:46:50.164Z,0.82
2023-01-31T20:49:16.837Z,0.75
2023-01-31T20:51:43.326Z,1.33
2023-01-31T20:54:09.935Z,0.77
2023-01-31T20:56:36.364Z,1.05
2023-01-31T20:59:02.877Z,0.90
2023-01-31T21:01:29.375Z,1.00
2023-01-31T21:03:55.974Z,0.90
2023-01-31T21:06:22.495Z,0.90
2023-01-31T21:08:49.030Z,0.90
2023-01-31T21:11:15.690Z,0.82
2023-01-31T21:13:43.919Z,0.60
2023-01-31T21:16:11.739Z,1.13
2023-01-31T21:18:40.104Z,0.83
2023-01-31T21:21:09.300Z,1.02
2023-01-31T21:23:37.481Z,1.08
2023-01-31T21:26:06.123Z,1.05
2023-01-31T21:28:33.114Z,0.52
2023-01-31T21:31:01.878Z,0.60
2023-01-31T21:33:29.284Z,1.10
2023-01-31T21:35:58.146Z,0.95
2023-01-31T21:38:25.345Z,0.93
2023-01-31T21:41:14.730Z,0.80
2023-01-31T21:43:41.284Z,0.77
2023-01-31T21:46:11.944Z,0.60
2023-01-31T21:48:39.318Z,0.63
2023-01-31T21:51:08.382Z,0.80
2023-01-31T21:53:35.803Z,1.05
2023-01-31T21:56:02.892Z,0.90
2023-01-31T21:58:29.408Z,0.60
2023-01-31T22:01:03.012Z,0.73
2023-01-31T22:03:29.513Z,0.70
2023-01-31T22:06:04.515Z,0.95
2023-01-31T22:08:31.573Z,1.13
2023-01-31T22:11:03.131Z,0.82
2023-01-31T22:13:30.570Z,0.93
2023-01-31T22:16:02.072Z,1.05
2023-01-31T22:18:29.565Z,1.15
2023-01-31T22:21:19.293Z,1.10
2023-01-31T22:23:48.251Z,0.63
2023-01-31T22:26:17.915Z,0.90
2023-01-31T22:28:45.134Z,1.08
2023-01-31T22:31:12.891Z,0.88
2023-01-31T22:33:41.839Z,0.83
2023-01-31T22:36:10.084Z,0.75
2023-01-31T22:38:37.787Z,1.05
2023-01-31T22:41:09.875Z,1.15
2023-01-31T22:43:38.407Z,0.60
2023-01-31T22:46:07.723Z,1.30
2023-01-31T22:48:35.927Z,1.20
2023-01-31T22:51:08.280Z,0.80
2023-01-31T22:53:36.671Z,0.85
2023-01-31T22:56:06.267Z,1.10
2023-01-31T22:58:33.314Z,0.80
2023-01-31T23:01:00.145Z,0.80
2023-01-31T23:03:27.339Z,0.90
2023-01-31T23:05:53.847Z,0.68
2023-01-31T23:08:20.412Z,0.80
2023-01-31T23:10:46.934Z,0.60
2023-01-31T23:13:13.596Z,1.50
2023-01-31T23:15:40.448Z,0.68
2023-01-31T23:18:07.168Z,0.82
2023-01-31T23:20:34.252Z,0.88
2023-01-31T23:23:00.970Z,1.00
2023-01-31T23:25:29.874Z,0.90
2023-01-31T23:27:58.200Z,0.50
2023-01-31T23:30:25.139Z,0.93
2023-01-31T23:32:52.587Z,1.10
2023-01-31T23:35:19.931Z,0.60
2023-01-31T23:37:46.674Z,1.25
2023-01-31T23:40:13.230Z,0.73
2023-01-31T23:42:39.700Z,1.08
2023-01-31T23:45:06.632Z,1.02
2023-01-31T23:47:33.244Z,0.90
2023-01-31T23:49:59.903Z,1.05
2023-01-31T23:52:26.393Z,0.93
2023-01-31T23:54:53.038Z,0.82
2023-01-31T23:57:19.518Z,0.75
2023-01-31T23:59:47.009Z,1.20
